West Lexington, Virginia
Current Conditions -  °F | °C
As of 4:55 AM on Sunday 21 Dec 2014 (Local Time) from KHSP Reporting Station
Haze Haze  
Wind Chill: -6°   Ceiling: 300
Heat Index: -2°   Visibility: 5mi
Dew Point: -2°   Wind: 7mph
Humidity: 100%   Direction: 270°W
Pressure: 30.1"   Gusts: NA
Location:  37.7866°N, 79.5193°W
Report Text: KHSP 210955Z AUTO 27006KT 5SM BR BKN003 OVC020 M02/M02 A3010 RMK AO2 T10171017
Loading
Personal Weather Stations






























Interactive Weather Map New forecast layout! Learn more

10-Day Weather Forecast

Advertisements
Track Severe Weather on mobile